TimeCST,TemperatureF,Dew PointF,Humidity,Sea Level PressureIn,VisibilityMPH,Wind Direction,Wind SpeedMPH,Gust SpeedMPH,PrecipitationIn,Events,Conditions,WindDirDegrees,DateUTC
12:35 AM,29.1,23.0,78,30.45,10.0,SSE,3.5,-,N/A,,Clear,160,2012-11-14 06:35:00
12:55 AM,28.2,22.8,80,30.45,10.0,Calm,Calm,-,N/A,,Clear,0,2012-11-14 06:55:00
1:15 AM,27.5,22.6,82,30.45,10.0,SSE,3.5,-,N/A,,Clear,150,2012-11-14 07:15:00
1:35 AM,27.7,22.8,82,30.45,10.0,Calm,Calm,-,N/A,,Clear,0,2012-11-14 07:35:00
1:55 AM,28.2,22.8,80,30.45,10.0,Calm,Calm,-,N/A,,Scattered Clouds,0,2012-11-14 07:55:00
2:15 AM,28.9,23.5,80,30.45,10.0,Calm,Calm,-,N/A,,Scattered Clouds,0,2012-11-14 08:15:00
2:35 AM,29.3,23.9,80,30.45,10.0,Calm,Calm,-,N/A,,Mostly Cloudy,0,2012-11-14 08:35:00
2:55 AM,29.3,23.7,80,30.45,10.0,SSE,3.5,-,N/A,,Scattered Clouds,150,2012-11-14 08:55:00
3:15 AM,29.1,23.7,80,30.44,10.0,SSE,3.5,-,N/A,,Scattered Clouds,150,2012-11-14 09:15:00
3:35 AM,28.9,23.5,80,30.44,10.0,SSE,3.5,-,N/A,,Clear,150,2012-11-14 09:35:00
3:55 AM,28.8,23.5,81,30.43,10.0,SSE,3.5,-,N/A,,Clear,150,2012-11-14 09:55:00
4:15 AM,29.3,23.9,80,30.44,10.0,Calm,Calm,-,N/A,,Scattered Clouds,0,2012-11-14 10:15:00
4:35 AM,29.5,23.9,80,30.45,10.0,Calm,Calm,-,N/A,,Mostly Cloudy,0,2012-11-14 10:35:00
4:55 AM,30.0,24.1,79,30.45,10.0,Calm,Calm,-,N/A,,Mostly Cloudy,0,2012-11-14 10:55:00
5:15 AM,30.0,24.6,80,30.45,10.0,SE,3.5,-,N/A,,Overcast,140,2012-11-14 11:15:00
5:35 AM,30.0,24.4,80,30.45,10.0,SE,3.5,-,N/A,,Overcast,140,2012-11-14 11:35:00
5:55 AM,30.0,24.8,81,30.44,10.0,SSE,3.5,-,N/A,,Mostly Cloudy,150,2012-11-14 11:55:00
6:15 AM,30.9,25.3,80,30.44,10.0,SE,5.8,-,N/A,,Mostly Cloudy,140,2012-11-14 12:15:00
6:35 AM,31.1,25.7,80,30.44,10.0,SSE,5.8,-,N/A,,Overcast,150,2012-11-14 12:35:00
6:55 AM,31.5,25.7,79,30.44,10.0,SSE,4.6,-,N/A,,Overcast,160,2012-11-14 12:55:00
7:15 AM,32.0,25.7,78,30.44,10.0,SSE,5.8,-,N/A,,Overcast,160,2012-11-14 13:15:00
7:35 AM,32.2,26.1,78,30.44,10.0,SSE,4.6,-,N/A,,Overcast,160,2012-11-14 13:35:00
8:35 AM,34.2,26.6,74,30.43,10.0,South,6.9,-,N/A,,Overcast,170,2012-11-14 14:35:00
8:55 AM,34.9,27.1,73,30.44,10.0,South,9.2,-,N/A,,Overcast,170,2012-11-14 14:55:00
9:15 AM,35.6,27.7,73,30.43,10.0,South,9.2,-,N/A,,Overcast,170,2012-11-14 15:15:00
9:35 AM,36.7,27.1,68,30.42,10.0,South,11.5,17.3,N/A,,Overcast,170,2012-11-14 15:35:00
9:55 AM,37.4,27.3,67,30.42,10.0,South,9.2,-,N/A,,Mostly Cloudy,170,2012-11-14 15:55:00
10:15 AM,38.3,27.3,65,30.42,10.0,South,11.5,-,N/A,,Scattered Clouds,170,2012-11-14 16:15:00
10:35 AM,39.2,27.3,62,30.42,10.0,South,13.8,18.4,N/A,,Scattered Clouds,170,2012-11-14 16:35:00
10:55 AM,39.6,26.6,60,30.42,10.0,South,12.7,18.4,N/A,,Mostly Cloudy,170,2012-11-14 16:55:00
11:35 AM,41.4,26.8,56,30.41,10.0,SSW,12.7,17.3,N/A,,Clear,200,2012-11-14 17:35:00
11:55 AM,42.1,26.6,54,30.40,10.0,South,13.8,-,N/A,,Clear,180,2012-11-14 17:55:00
12:15 PM,43.0,27.1,54,30.40,10.0,South,10.4,16.1,N/A,,Clear,180,2012-11-14 18:15:00
12:55 PM,43.5,27.1,53,30.38,10.0,South,12.7,18.4,N/A,,Clear,180,2012-11-14 18:55:00
1:15 PM,43.2,27.5,54,30.38,10.0,South,13.8,-,N/A,,Clear,190,2012-11-14 19:15:00
1:35 PM,44.6,28.0,52,30.37,10.0,SSW,15.0,19.6,N/A,,Clear,200,2012-11-14 19:35:00
1:55 PM,44.4,28.4,53,30.36,10.0,South,9.2,-,N/A,,Clear,170,2012-11-14 19:55:00
2:15 PM,44.6,28.6,53,30.35,10.0,South,11.5,-,N/A,,Clear,180,2012-11-14 20:15:00
2:35 PM,44.6,28.4,53,30.35,10.0,South,12.7,-,N/A,,Clear,180,2012-11-14 20:35:00
2:55 PM,44.4,29.1,55,30.35,10.0,South,11.5,-,N/A,,Clear,180,2012-11-14 20:55:00
3:15 PM,43.9,28.8,55,30.34,10.0,South,11.5,17.3,N/A,,Clear,170,2012-11-14 21:15:00
3:35 PM,43.5,28.9,56,30.35,10.0,South,10.4,16.1,N/A,,Clear,180,2012-11-14 21:35:00
3:55 PM,43.0,29.7,59,30.35,10.0,South,10.4,-,N/A,,Clear,190,2012-11-14 21:55:00
4:15 PM,42.1,29.8,62,30.35,10.0,South,8.1,-,N/A,,Clear,170,2012-11-14 22:15:00
4:35 PM,40.5,29.3,64,30.35,10.0,South,5.8,-,N/A,,Scattered Clouds,170,2012-11-14 22:35:00
4:55 PM,40.3,28.9,64,30.35,10.0,South,6.9,-,N/A,,Scattered Clouds,190,2012-11-14 22:55:00
5:35 PM,39.2,29.3,68,30.36,10.0,SSE,5.8,-,N/A,,Overcast,160,2012-11-14 23:35:00
5:55 PM,37.9,29.1,71,30.35,10.0,SSE,4.6,-,N/A,,Overcast,150,2012-11-14 23:55:00
6:15 PM,38.1,29.1,70,30.35,10.0,SSE,5.8,-,N/A,,Overcast,160,2012-11-15 00:15:00
6:35 PM,37.6,28.6,70,30.35,10.0,SSE,5.8,-,N/A,,Overcast,160,2012-11-15 00:35:00
6:55 PM,36.5,28.4,72,30.35,10.0,SSE,6.9,-,N/A,,Scattered Clouds,150,2012-11-15 00:55:00
7:15 PM,35.8,28.2,74,30.35,10.0,SSE,5.8,-,N/A,,Scattered Clouds,160,2012-11-15 01:15:00
7:35 PM,35.6,28.2,75,30.34,10.0,SSE,3.5,-,N/A,,Clear,160,2012-11-15 01:35:00
7:55 PM,35.2,28.0,75,30.34,10.0,South,5.8,-,N/A,,Clear,170,2012-11-15 01:55:00
8:15 PM,34.2,27.9,78,30.34,10.0,SSE,4.6,-,N/A,,Clear,160,2012-11-15 02:15:00
8:35 PM,34.7,27.5,75,30.34,10.0,South,5.8,-,N/A,,Clear,170,2012-11-15 02:35:00
8:55 PM,34.7,27.5,75,30.34,10.0,South,8.1,-,N/A,,Clear,170,2012-11-15 02:55:00
9:15 PM,34.5,27.3,75,30.34,10.0,South,5.8,-,N/A,,Clear,180,2012-11-15 03:15:00
9:35 PM,33.8,27.1,77,30.34,10.0,South,4.6,-,N/A,,Clear,180,2012-11-15 03:35:00
9:55 PM,32.7,27.0,79,30.34,10.0,South,4.6,-,N/A,,Clear,180,2012-11-15 03:55:00
10:15 PM,33.1,27.0,78,30.34,10.0,South,4.6,-,N/A,,Clear,170,2012-11-15 04:15:00
10:35 PM,33.1,27.0,78,30.34,10.0,South,4.6,-,N/A,,Clear,170,2012-11-15 04:35:00
10:55 PM,32.5,27.0,80,30.34,10.0,South,3.5,-,N/A,,Clear,190,2012-11-15 04:55:00
11:15 PM,32.5,27.0,80,30.34,10.0,SSE,5.8,-,N/A,,Clear,160,2012-11-15 05:15:00
11:35 PM,32.9,27.0,79,30.33,10.0,SSE,5.8,-,N/A,,Clear,160,2012-11-15 05:35:00
11:55 PM,32.4,27.0,80,30.34,10.0,South,4.6,-,N/A,,Clear,170,2012-11-15 05:55:00